Time;durP1;ratioP1;P1;durP2;ratioP2;P2;SDS_P1;SDS_P2;PMS_P1;PMS_P2;Temp;Humidity;BMP_temperature;BMP_pressure;BME280_temperature;BME280_humidity;BME280_pressure;Samples;Min_cycle;Max_cycle;Signal;HPM_P1;HPM_P2
2023/10/12 00:02:16;;;;;;;24.50;13.32;;;;;;;17.62;100.00;101039.56;5011803;28;20038;-73
2023/10/12 00:04:43;;;;;;;24.70;13.48;;;;;;;17.49;100.00;101042.50;5029508;28;20069;-73
2023/10/12 00:07:16;;;;;;;28.08;13.48;;;;;;;17.52;100.00;101036.84;5024353;28;20045;-73
2023/10/12 00:09:48;;;;;;;26.98;14.25;;;;;;;17.49;100.00;101036.25;5026167;28;20029;-73
2023/10/12 00:12:21;;;;;;;24.08;14.10;;;;;;;17.44;100.00;101038.50;5025427;28;20041;-73
2023/10/12 00:14:48;;;;;;;26.38;14.63;;;;;;;17.41;100.00;101041.47;5022982;28;20034;-73
2023/10/12 00:17:15;;;;;;;29.83;14.95;;;;;;;17.39;100.00;101054.25;5031271;28;20045;-73
2023/10/12 00:19:40;;;;;;;32.83;16.13;;;;;;;17.33;100.00;101050.25;5024573;28;20045;-74
2023/10/12 00:22:11;;;;;;;30.30;17.23;;;;;;;17.42;100.00;101062.94;5027729;28;20060;-74
2023/10/12 00:24:38;;;;;;;32.28;16.63;;;;;;;17.44;100.00;101054.69;5028238;28;20042;-73
2023/10/12 00:27:11;;;;;;;33.08;19.02;;;;;;;17.43;100.00;101063.78;5030962;28;20037;-73
2023/10/12 00:29:39;;;;;;;30.27;17.42;;;;;;;17.45;100.00;101065.34;5029822;28;20038;-74
2023/10/12 00:32:08;;;;;;;29.40;17.23;;;;;;;17.51;100.00;101053.16;5032069;28;20044;-73
2023/10/12 00:34:38;;;;;;;33.70;18.65;;;;;;;17.51;100.00;101056.69;5025259;28;21020;-74
2023/10/12 00:37:06;;;;;;;38.22;20.88;;;;;;;17.39;100.00;101054.25;5025520;28;21326;-74
2023/10/12 00:39:45;;;;;;;35.45;20.05;;;;;;;17.44;100.00;101054.69;5014788;28;20030;-73
2023/10/12 00:42:16;;;;;;;34.30;20.27;;;;;;;17.42;100.00;101072.81;5022794;28;20630;-73
2023/10/12 00:44:41;;;;;;;34.33;21.48;;;;;;;17.42;100.00;101078.22;5019728;28;20053;-74
2023/10/12 00:47:19;;;;;;;35.30;20.48;;;;;;;17.38;100.00;101082.19;5027423;28;20037;-74
2023/10/12 00:49:48;;;;;;;39.53;22.27;;;;;;;17.34;100.00;101084.31;5022269;28;20022;-74
2023/10/12 00:52:23;;;;;;;41.40;22.75;;;;;;;17.33;100.00;101078.06;5022371;28;20230;-74
2023/10/12 00:54:55;;;;;;;35.65;21.33;;;;;;;17.34;100.00;101081.63;5062590;28;20045;-73
2023/10/12 00:57:22;;;;;;;;;;;;;;;17.34;100.00;101073.53;5031729;28;20077;-73
2023/10/12 00:59:51;;;;;;;44.78;24.90;;;;;;;17.30;100.00;101074.78;5038343;28;19916;-73
2023/10/12 01:02:20;;;;;;;39.92;23.52;;;;;;;17.24;100.00;101084.25;5019184;28;20046;-73
2023/10/12 01:04:49;;;;;;;44.35;24.58;;;;;;;17.25;100.00;101083.25;5031619;28;20077;-74
2023/10/12 01:07:25;;;;;;;51.45;26.00;;;;;;;17.26;100.00;101087.66;5028900;28;20056;-73
2023/10/12 01:10:02;;;;;;;53.60;27.10;;;;;;;17.17;100.00;101093.00;5031858;28;20037;-74
2023/10/12 01:12:31;;;;;;;45.33;26.48;;;;;;;17.10;100.00;101098.06;5031322;28;20051;-74
2023/10/12 01:14:57;;;;;;;49.30;27.10;;;;;;;17.16;100.00;101091.28;5033113;28;20116;-74
2023/10/12 01:17:35;;;;;;;50.25;27.02;;;;;;;17.16;100.00;101088.59;5028245;28;20038;-74
2023/10/12 01:20:10;;;;;;;54.47;28.88;;;;;;;17.05;100.00;101111.09;5022069;28;20026;-74
2023/10/12 01:22:39;;;;;;;51.78;29.38;;;;;;;16.99;100.00;101111.63;5019299;28;20042;-74
2023/10/12 01:25:10;;;;;;;54.65;29.58;;;;;;;17.00;100.00;101116.88;5032481;28;20059;-74
2023/10/12 01:27:41;;;;;;;52.80;31.42;;;;;;;16.99;100.00;101117.03;5064609;28;20051;-75
2023/10/12 01:30:22;;;;;;;60.08;32.38;;;;;;;16.95;100.00;101120.97;5026691;28;20547;-75
2023/10/12 01:32:57;;;;;;;64.47;33.08;;;;;;;16.90;100.00;101124.03;5050620;28;20037;-74
2023/10/12 01:35:33;;;;;;;63.20;34.97;;;;;;;16.96;100.00;101128.03;5026762;28;20037;-74
2023/10/12 01:38:05;;;;;;;67.90;35.45;;;;;;;17.00;100.00;101126.81;5032631;28;20061;-74
2023/10/12 01:43:17;;;;;;;71.00;36.28;;;;;;;16.97;100.00;101140.56;5033661;28;20061;-74
2023/10/12 01:46:01;;;;;;;70.85;36.05;;;;;;;16.87;100.00;101137.78;5030684;28;20030;-74
2023/10/12 01:48:33;;;;;;;77.20;37.75;;;;;;;16.99;100.00;101133.19;5024718;28;20029;-73
2023/10/12 01:51:03;;;;;;;;;;;;;;;17.01;100.00;101123.97;5029527;28;20038;-75
2023/10/12 01:53:32;;;;;;;72.97;38.00;;;;;;;16.95;100.00;101126.34;5024075;28;20007;-74
2023/10/12 01:55:59;;;;;;;73.60;37.22;;;;;;;16.87;100.00;101137.78;5026415;28;20076;-74
2023/10/12 01:58:28;;;;;;;79.35;40.10;;;;;;;16.99;100.00;101141.25;5015887;28;20037;-75
2023/10/12 02:00:55;;;;;;;82.22;40.15;;;;;;;16.92;100.00;101148.16;5041505;28;20040;-74
2023/10/12 02:03:31;;;;;;;82.35;41.05;;;;;;;16.94;100.00;101141.66;5026126;28;20935;-73
2023/10/12 02:06:01;;;;;;;77.95;40.75;;;;;;;16.87;100.00;101150.38;5029017;28;20053;-74
2023/10/12 02:08:33;;;;;;;81.32;41.45;;;;;;;16.96;100.00;101158.53;5035819;28;20517;-74
2023/10/12 02:11:11;;;;;;;82.40;40.78;;;;;;;16.90;100.00;101153.69;5028239;28;20281;-74
2023/10/12 02:13:37;;;;;;;70.68;36.33;;;;;;;16.82;100.00;101161.56;5035580;28;20039;-74
2023/10/12 02:16:04;;;;;;;66.30;35.72;;;;;;;16.84;100.00;101159.59;5032087;28;20034;-75
2023/10/12 02:18:30;;;;;;;62.88;35.60;;;;;;;16.83;100.00;101158.75;5040917;28;20041;-74
2023/10/12 02:23:36;;;;;;;67.63;35.58;;;;;;;16.82;100.00;101169.66;5027373;28;20048;-74
2023/10/12 02:26:28;;;;;;;72.25;38.15;;;;;;;16.77;100.00;101178.13;5018213;28;20041;-74
2023/10/12 02:28:53;;;;;;;61.65;33.67;;;;;;;16.74;100.00;101172.97;5055807;28;20049;-74
2023/10/12 02:31:20;;;;;;;71.03;37.47;;;;;;;16.76;100.00;101168.31;5030653;28;21099;-74
2023/10/12 02:33:45;;;;;;;61.88;32.53;;;;;;;16.76;100.00;101151.28;5026246;28;20033;-73
2023/10/12 02:36:12;;;;;;;70.88;36.95;;;;;;;16.80;100.00;101145.53;5028609;28;20821;-75
2023/10/12 02:38:41;;;;;;;74.82;36.08;;;;;;;16.87;100.00;101120.75;5030528;28;20045;-74
2023/10/12 02:41:12;;;;;;;57.25;34.97;;;;;;;16.83;100.00;101117.47;5022293;28;20029;-74
2023/10/12 02:43:40;;;;;;;;;;;;;;;16.85;100.00;101098.50;5034509;28;20056;-74
2023/10/12 02:46:17;;;;;;;59.55;32.88;;;;;;;16.83;100.00;101115.63;5031082;28;19952;-74
2023/10/12 02:48:47;;;;;;;70.45;34.80;;;;;;;16.78;100.00;101149.34;5028182;28;20067;-75
2023/10/12 02:51:14;;;;;;;63.47;33.30;;;;;;;16.78;100.00;101158.28;5029137;28;20064;-75
2023/10/12 02:53:40;;;;;;;57.47;33.13;;;;;;;16.86;100.00;101168.38;5023566;28;20999;-74
2023/10/12 02:56:06;;;;;;;71.68;35.13;;;;;;;16.95;100.00;101177.53;5021280;28;20045;-74
2023/10/12 02:58:32;;;;;;;77.22;39.03;;;;;;;16.99;100.00;101170.91;5067951;28;20048;-74
2023/10/12 03:01:14;;;;;;;75.85;39.33;;;;;;;16.96;100.00;101179.22;5028530;28;20041;-74
2023/10/12 03:03:48;;;;;;;83.65;39.47;;;;;;;16.94;100.00;101175.81;5028917;28;20045;-74
2023/10/12 03:06:22;;;;;;;74.25;38.60;;;;;;;16.98;100.00;101180.84;5023993;28;20041;-75
2023/10/12 03:11:31;;;;;;;66.13;35.78;;;;;;;16.97;100.00;101184.50;5032339;28;20049;-74
2023/10/12 03:14:00;;;;;;;72.50;38.67;;;;;;;16.90;100.00;101185.16;5034754;28;20048;-74
2023/10/12 03:16:37;;;;;;;75.90;39.05;;;;;;;16.93;100.00;101180.38;5034509;28;20822;-74
2023/10/12 03:19:25;;;;;;;82.22;40.92;;;;;;;16.96;100.00;101182.78;5041651;28;20975;-74
2023/10/12 03:21:52;;;;;;;63.88;33.33;;;;;;;16.90;100.00;101180.63;5024944;28;20037;-75
2023/10/12 03:24:23;;;;;;;68.35;34.65;;;;;;;16.85;100.00;101172.06;5030658;28;20059;-74
2023/10/12 03:27:10;;;;;;;61.78;31.48;;;;;;;16.86;100.00;101175.59;5031521;28;20037;-75
2023/10/12 03:29:43;;;;;;;59.88;32.10;;;;;;;16.81;100.00;101184.94;5025318;28;20038;-74
2023/10/12 03:32:11;;;;;;;55.63;28.63;;;;;;;16.83;100.00;101169.50;5022059;28;20048;-74
2023/10/12 03:37:15;;;;;;;50.35;26.33;;;;;;;16.87;100.00;101142.28;5024395;28;20036;-74
2023/10/12 03:39:59;;;;;;;51.10;27.95;;;;;;;16.88;100.00;101136.81;5025304;28;20046;-74
2023/10/12 03:44:57;;;;;;;52.78;29.67;;;;;;;16.91;100.00;101141.06;5025034;28;20076;-76
2023/10/12 03:52:19;;;;;;;57.25;27.52;;;;;;;17.05;100.00;101148.81;5026583;28;20037;-74
2023/10/12 04:19:03;;;;;;;20.33;11.48;;;;;;;16.55;100.00;101156.63;5027049;28;20041;-75
2023/10/12 04:21:33;;;;;;;12.98;7.20;;;;;;;16.32;100.00;101150.47;5031612;28;20037;-75
2023/10/12 04:26:39;;;;;;;10.88;6.45;;;;;;;16.19;100.00;101171.28;5027935;28;19964;-74
2023/10/12 04:29:13;;;;;;;10.88;6.68;;;;;;;16.24;100.00;101163.69;5021194;28;20041;-75
2023/10/12 04:32:10;;;;;;;11.65;5.95;;;;;;;16.25;100.00;101163.56;5021608;28;20034;-75
2023/10/12 04:34:27;;;;;;;11.35;5.78;;;;;;;16.13;100.00;101172.66;5030776;28;20116;-75
2023/10/12 04:37:07;;;;;;;10.70;5.88;;;;;;;16.13;100.00;101172.66;5018368;28;20066;-75
2023/10/12 04:39:37;;;;;;;9.73;4.63;;;;;;;16.19;100.00;101171.28;5028036;28;20092;-75
2023/10/12 04:42:20;;;;;;;10.45;5.15;;;;;;;16.08;100.00;101164.09;5029075;28;20041;-74
2023/10/12 04:44:52;;;;;;;10.75;4.95;;;;;;;16.04;100.00;101173.38;5035743;28;20118;-74
2023/10/12 04:47:22;;;;;;;9.75;5.05;;;;;;;16.20;100.00;101173.84;5019427;28;20046;-75
2023/10/12 04:52:24;;;;;;;9.00;5.18;;;;;;;16.29;100.00;101180.31;5025153;28;20853;-75
2023/10/12 04:57:38;;;;;;;12.98;5.13;;;;;;;16.32;100.00;101177.38;5033849;28;20063;-75
2023/10/12 05:02:58;;;;;;;7.22;4.43;;;;;;;16.33;100.00;101162.09;5017418;28;20045;-76
2023/10/12 05:07:55;;;;;;;11.48;4.90;;;;;;;16.29;100.00;101164.16;5024667;28;20247;-76
2023/10/12 05:10:46;;;;;;;12.45;5.95;;;;;;;16.30;100.00;101169.41;5028068;28;20542;-75
2023/10/12 05:13:10;;;;;;;15.57;6.75;;;;;;;16.30;100.00;101173.94;5030998;28;20045;-74
2023/10/12 05:18:21;;;;;;;13.20;6.93;;;;;;;16.18;100.00;101183.03;5027894;28;20038;-75
2023/10/12 05:20:46;;;;;;;22.67;10.98;;;;;;;16.20;100.00;101189.97;5025587;28;20154;-75
2023/10/12 05:23:12;;;;;;;24.83;11.23;;;;;;;16.22;100.00;101198.81;5019151;28;27469;-74
2023/10/12 05:28:30;;;;;;;34.88;17.48;;;;;;;16.21;100.00;101205.13;5023273;28;20037;-74
2023/10/12 05:31:09;;;;;;;24.27;12.95;;;;;;;16.13;100.00;101206.75;5030042;28;20134;-75
2023/10/12 05:36:08;;;;;;;26.02;12.10;;;;;;;15.72;100.00;101230.63;5028281;28;20034;-75
2023/10/12 05:39:11;;;;;;;24.38;11.85;;;;;;;15.62;100.00;101229.59;5025062;28;20180;-75
2023/10/12 05:41:38;;;;;;;29.13;10.57;;;;;;;15.69;100.00;101243.44;5024963;28;20085;-76
2023/10/12 05:44:08;;;;;;;28.27;10.27;;;;;;;15.70;100.00;101246.00;5027077;28;20075;-76
2023/10/12 05:46:37;;;;;;;30.60;12.65;;;;;;;15.40;100.00;101251.88;5019784;28;20129;-74
2023/10/12 05:49:13;;;;;;;28.63;12.10;;;;;;;15.19;100.00;101257.09;5028635;28;20040;-75
2023/10/12 05:51:44;;;;;;;26.20;10.02;;;;;;;14.89;100.00;101273.69;5021099;28;20033;-76
2023/10/12 05:54:15;;;;;;;36.13;11.13;;;;;;;15.00;100.00;101287.16;5020005;28;20038;-76
2023/10/12 05:56:40;;;;;;;27.80;9.85;;;;;;;14.89;100.00;101300.53;5025876;28;20520;-75
2023/10/12 05:59:09;;;;;;;27.88;10.10;;;;;;;14.85;100.00;101316.97;5030527;28;20041;-75
2023/10/12 06:01:37;;;;;;;22.98;8.45;;;;;;;14.96;100.00;101323.28;5026200;28;20081;-75
2023/10/12 06:04:05;;;;;;;29.08;8.55;;;;;;;15.04;100.00;101322.72;5031807;28;20049;-77
2023/10/12 06:06:36;;;;;;;26.90;8.45;;;;;;;14.93;100.00;101330.72;5018852;28;20049;-75
2023/10/12 06:09:13;;;;;;;42.50;13.73;;;;;;;14.95;100.00;101326.94;5024945;28;20048;-75
2023/10/12 06:11:42;;;;;;;28.13;10.07;;;;;;;14.90;100.00;101334.47;5026475;28;20151;-75
2023/10/12 06:14:08;;;;;;;16.38;5.78;;;;;;;14.46;100.00;101341.22;5027820;28;20033;-75
2023/10/12 06:16:45;;;;;;;28.70;8.63;;;;;;;14.56;100.00;101345.94;5028867;28;20033;-75
2023/10/12 06:19:28;;;;;;;16.67;6.25;;;;;;;14.37;100.00;101349.06;5028004;28;20041;-76
2023/10/12 06:21:58;;;;;;;16.27;5.30;;;;;;;14.61;100.00;101355.41;5026338;28;20037;-75
2023/10/12 06:24:33;;;;;;;15.48;5.40;;;;;;;14.41;100.00;101358.63;5029739;28;20041;-75
2023/10/12 06:27:26;;;;;;;14.13;5.25;;;;;;;14.28;100.00;101347.03;5027597;28;20144;-75
2023/10/12 06:29:53;;;;;;;19.45;4.90;;;;;;;13.82;100.00;101345.75;5022917;28;20070;-75
2023/10/12 06:32:19;;;;;;;21.00;5.75;;;;;;;13.55;100.00;101352.97;5020150;28;20084;-75
2023/10/12 06:45:51;;;;;;;23.58;6.07;;;;;;;13.58;100.00;101385.78;4983062;28;20077;-75
2023/10/12 06:51:02;;;;;;;21.05;6.45;;;;;;;13.54;100.00;101386.94;4984164;28;20196;-73
2023/10/12 06:53:34;;;;;;;17.48;6.07;;;;;;;13.39;100.00;101391.50;4985629;28;20077;-75
2023/10/12 07:04:15;;;;;;;22.27;7.57;;;;;;;13.62;100.00;101405.22;4986780;28;20447;-76
2023/10/12 07:06:56;;;;;;;21.90;7.97;;;;;;;13.72;100.00;101401.81;4985752;28;20161;-74
2023/10/12 07:09:39;;;;;;;14.27;5.43;;;;;;;13.47;100.00;101409.78;4987819;28;20093;-75
2023/10/12 07:12:08;;;;;;;;;;;;;;;13.66;100.00;101412.94;4987750;28;20053;-75
2023/10/12 07:14:38;;;;;;;24.73;6.80;;;;;;;13.84;100.00;101423.38;4999964;28;19917;-76
2023/10/12 07:17:09;;;;;;;20.88;6.63;;;;;;;13.85;100.00;101420.59;5015427;28;20105;-78
2023/10/12 07:19:40;;;;;;;22.48;6.28;;;;;;;13.86;100.00;101408.91;5022403;28;21074;-78
2023/10/12 07:22:08;;;;;;;25.88;8.05;;;;;;;13.79;100.00;101402.25;5005605;28;20054;-77
2023/10/12 07:24:38;;;;;;;21.77;7.35;;;;;;;13.60;100.00;101405.28;5053918;28;20052;-77
2023/10/12 07:27:11;;;;;;;28.73;7.25;;;;;;;13.70;100.00;101411.78;5026476;28;20130;-76
2023/10/12 07:29:39;;;;;;;21.48;7.22;;;;;;;13.74;100.00;101415.09;5029251;28;20037;-78
2023/10/12 07:32:18;;;;;;;23.30;6.93;;;;;;;13.71;100.00;101424.22;5019888;28;20049;-77
2023/10/12 07:34:51;;;;;;;23.30;6.63;;;;;;;13.57;100.00;101428.78;5028139;28;20794;-75
2023/10/12 07:37:17;;;;;;;26.65;7.03;;;;;;;13.58;100.00;101435.84;5026292;28;20117;-77
2023/10/12 07:39:43;;;;;;;24.95;7.57;;;;;;;13.74;100.00;101439.22;5026626;28;20037;-78
2023/10/12 07:42:12;;;;;;;22.20;6.75;;;;;;;13.79;100.00;101439.78;5031983;28;20042;-76
2023/10/12 07:44:54;;;;;;;24.02;7.13;;;;;;;14.02;100.00;101442.72;5026101;28;20128;-76
2023/10/12 07:47:22;;;;;;;22.45;7.35;;;;;;;13.97;100.00;101435.00;5029370;28;20094;-76
2023/10/12 07:49:49;;;;;;;35.95;9.23;;;;;;;14.14;100.00;101442.72;5030055;28;20038;-77
2023/10/12 07:54:58;;;;;;;19.30;8.02;;;;;;;14.14;100.00;101450.78;5031219;28;20785;-76
2023/10/12 07:57:29;;;;;;;18.17;7.00;;;;;;;14.08;100.00;101448.53;5034345;28;20038;-74
2023/10/12 08:03:05;;;;;;;17.67;7.05;;;;;;;14.02;100.00;101443.59;5028826;28;20045;-77
2023/10/12 08:13:16;;;;;;;17.10;7.53;;;;;;;14.12;100.00;101438.47;5023217;28;20077;-75
2023/10/12 08:21:17;;;;;;;17.50;6.90;;;;;;;13.98;100.00;101442.06;5033076;28;20107;-77
2023/10/12 08:23:49;;;;;;;17.73;6.78;;;;;;;14.04;100.00;101446.16;5026090;28;20255;-76
2023/10/12 08:26:21;;;;;;;15.77;6.80;;;;;;;13.86;100.00;101442.91;5027807;28;20141;-76
2023/10/12 08:28:55;;;;;;;13.63;6.22;;;;;;;13.82;100.00;101457.47;5027130;28;20425;-75
2023/10/12 08:31:27;;;;;;;23.30;7.43;;;;;;;14.00;100.00;101457.06;5059323;28;20135;-75
2023/10/12 08:33:59;;;;;;;;;;;;;;;14.14;100.00;101452.59;5028304;28;20029;-76
2023/10/12 08:36:29;;;;;;;;;;;;;;;13.97;100.00;101443.91;5031878;28;19917;-76
2023/10/12 08:38:55;;;;;;;24.05;7.60;;;;;;;14.09;100.00;101452.06;5031520;28;19921;-75
2023/10/12 08:41:33;;;;;;;18.05;6.90;;;;;;;14.05;100.00;101434.47;5031082;28;20703;-76
2023/10/12 08:44:04;;;;;;;19.40;7.65;;;;;;;14.17;100.00;101441.69;5029214;28;20050;-74
2023/10/12 08:52:07;;;;;;;14.38;7.07;;;;;;;14.17;100.00;101450.59;5021832;28;20100;-74
2023/10/12 08:54:40;;;;;;;17.00;7.75;;;;;;;14.29;100.00;101437.28;5026303;28;20049;-76
2023/10/12 08:57:20;;;;;;;20.30;7.80;;;;;;;14.35;100.00;101451.13;5028561;28;20143;-76
2023/10/12 08:59:58;;;;;;;17.60;8.10;;;;;;;14.48;100.00;101440.44;5027248;28;20046;-74
2023/10/12 09:02:24;;;;;;;21.90;8.60;;;;;;;14.54;100.00;101437.31;5025447;28;20057;-76
2023/10/12 09:04:49;;;;;;;21.48;7.85;;;;;;;14.44;100.00;101442.44;5027199;28;20049;-77
2023/10/12 09:07:19;;;;;;;29.50;9.70;;;;;;;14.69;100.00;101433.53;5026318;28;20073;-75
2023/10/12 09:09:49;;;;;;;18.00;7.53;;;;;;;14.57;100.00;101438.94;5029327;28;20041;-76
2023/10/12 09:12:19;;;;;;;28.83;8.82;;;;;;;14.55;100.00;101430.13;5027042;28;20845;-73
2023/10/12 09:14:45;;;;;;;22.75;8.48;;;;;;;14.33;100.00;101425.38;5027927;28;20069;-73
2023/10/12 09:17:26;;;;;;;19.75;7.78;;;;;;;14.46;100.00;101427.09;5029580;28;20047;-79
2023/10/12 09:19:57;;;;;;;14.82;6.60;;;;;;;14.37;100.00;101417.00;5029679;28;20033;-76
2023/10/12 09:22:29;;;;;;;21.42;8.40;;;;;;;14.65;100.00;101413.25;5026330;28;20050;-77
2023/10/12 09:24:59;;;;;;;19.27;7.90;;;;;;;14.41;100.00;101404.25;5044052;28;20037;-75
2023/10/12 09:27:36;;;;;;;12.82;6.25;;;;;;;14.27;100.00;101423.13;5023529;28;20044;-77
2023/10/12 09:30:03;;;;;;;13.63;6.55;;;;;;;14.46;100.00;101451.25;5030269;28;20052;-74
2023/10/12 09:32:32;;;;;;;13.57;5.50;;;;;;;14.42;100.00;101456.94;5029818;28;20498;-74
2023/10/12 09:35:14;;;;;;;14.48;6.13;;;;;;;14.56;100.00;101455.97;5033995;28;20096;-78
2023/10/12 09:37:51;;;;;;;8.70;4.10;;;;;;;14.36;100.00;101450.19;5027231;28;20107;-77
2023/10/12 09:40:29;;;;;;;9.38;4.43;;;;;;;14.53;100.00;101438.28;5027431;28;20038;-73
2023/10/12 09:43:06;;;;;;;10.90;5.70;;;;;;;14.43;100.00;101447.91;5020788;28;20082;-76
2023/10/12 09:45:41;;;;;;;9.68;5.20;;;;;;;14.45;100.00;101454.03;5023033;28;20037;-76
2023/10/12 09:48:12;;;;;;;15.48;6.00;;;;;;;14.63;100.00;101451.91;5031558;28;20045;-77
2023/10/12 09:50:40;;;;;;;8.93;5.10;;;;;;;14.63;100.00;101435.81;5026018;28;20036;-77
2023/10/12 09:53:21;;;;;;;15.13;6.28;;;;;;;14.59;100.00;101429.78;5027220;28;20030;-76
2023/10/12 10:06:55;;;;;;;14.35;7.05;;;;;;;14.72;100.00;101436.03;5024951;28;20312;-76
2023/10/12 10:11:59;;;;;;;13.63;6.88;;;;;;;14.77;100.00;101430.31;5026738;28;20104;-75
2023/10/12 10:14:34;;;;;;;16.17;6.75;;;;;;;14.95;100.00;101423.59;5032549;28;20145;-74
2023/10/12 10:17:00;;;;;;;16.25;6.93;;;;;;;14.98;100.00;101414.47;5025973;28;20050;-76
2023/10/12 10:19:29;;;;;;;13.55;6.15;;;;;;;14.94;100.00;101413.00;5025198;28;21175;-75
2023/10/12 10:22:05;;;;;;;12.50;6.18;;;;;;;14.86;100.00;101401.94;5025244;28;20155;-77
2023/10/12 10:24:57;;;;;;;12.88;6.22;;;;;;;14.96;100.00;101411.91;5027248;28;20041;-77
2023/10/12 10:27:33;;;;;;;;;;;;;;;14.87;100.00;101404.53;5030452;28;20104;-77
2023/10/12 10:30:36;;;;;;;12.82;5.57;;;;;;;14.91;100.00;101418.56;5028661;28;19917;-76
2023/10/12 10:33:20;;;;;;;15.57;7.18;;;;;;;14.97;100.00;101408.25;5043272;28;20060;-76
2023/10/12 10:35:56;;;;;;;17.33;7.47;;;;;;;15.02;100.00;101411.47;5029059;28;20037;-76
2023/10/12 10:38:23;;;;;;;18.63;8.23;;;;;;;15.06;100.00;101414.78;5023498;28;20141;-76
2023/10/12 10:40:49;;;;;;;15.52;7.15;;;;;;;15.20;100.00;101417.31;5020168;28;20119;-76
2023/10/12 10:43:18;;;;;;;14.43;7.25;;;;;;;15.15;100.00;101406.03;5030531;28;20153;-75
2023/10/12 10:45:56;;;;;;;17.40;8.02;;;;;;;15.27;100.00;101399.78;5023902;28;20156;-75
2023/10/12 10:48:23;;;;;;;17.88;7.32;;;;;;;15.32;100.00;101401.28;5028205;28;20037;-75
2023/10/12 10:50:51;;;;;;;17.60;8.45;;;;;;;15.52;100.00;101392.56;5021647;28;20466;-76
2023/10/12 10:53:22;;;;;;;14.73;8.23;;;;;;;15.60;100.00;101394.66;5017448;28;20044;-76
2023/10/12 10:55:50;;;;;;;15.63;7.28;;;;;;;15.65;100.00;101379.94;5021118;28;20037;-77
2023/10/12 10:58:17;;;;;;;15.43;8.57;;;;;;;15.55;100.00;101386.94;5031597;28;20038;-76
2023/10/12 11:00:46;;;;;;;21.40;10.38;;;;;;;15.59;100.00;101385.75;5030405;28;20037;-76
2023/10/12 11:03:16;;;;;;;15.55;9.20;;;;;;;15.40;100.00;101378.19;5030921;28;20049;-76
2023/10/12 11:05:44;;;;;;;22.75;10.95;;;;;;;15.79;100.00;101390.50;5025718;28;20046;-75
2023/10/12 11:08:19;;;;;;;18.23;10.30;;;;;;;15.78;100.00;101388.78;5025838;28;20042;-75
2023/10/12 11:13:32;;;;;;;20.90;11.68;;;;;;;15.93;100.00;101375.13;5027514;28;20033;-77
2023/10/12 11:16:21;;;;;;;19.10;10.80;;;;;;;15.84;100.00;101371.31;5027969;28;20042;-77
2023/10/12 11:18:48;;;;;;;25.55;12.25;;;;;;;15.67;100.00;101372.63;5029902;28;20080;-75
2023/10/12 11:21:17;;;;;;;31.10;14.63;;;;;;;15.89;100.00;101373.66;5023111;28;20041;-75
2023/10/12 11:23:45;;;;;;;28.25;16.20;;;;;;;15.86;100.00;101371.19;5023730;28;20061;-76
2023/10/12 11:26:18;;;;;;;20.95;11.07;;;;;;;15.85;100.00;101367.66;5024978;28;20145;-77
2023/10/12 11:28:46;;;;;;;;;;;;;;;15.85;100.00;101367.66;5021101;28;20142;-76
2023/10/12 11:31:30;;;;;;;33.72;15.57;;;;;;;15.82;100.00;101373.28;5025638;28;19998;-76
2023/10/12 11:33:56;;;;;;;20.75;11.98;;;;;;;16.18;100.00;101363.31;5027356;28;20040;-75
2023/10/12 11:36:26;;;;;;;24.40;14.50;;;;;;;16.15;100.00;101350.09;5016591;28;20038;-77
2023/10/12 11:39:10;;;;;;;29.60;15.73;;;;;;;16.22;100.00;101349.50;5021624;28;20046;-77
2023/10/12 11:41:36;;;;;;;29.33;17.58;;;;;;;16.33;100.00;101337.88;5026917;28;20033;-76
2023/10/12 11:44:05;;;;;;;27.58;16.83;;;;;;;16.42;100.00;101339.84;5025454;28;20037;-74
2023/10/12 11:46:43;;;;;;;48.60;24.55;;;;;;;16.77;100.00;101326.25;5031005;28;20040;-74
2023/10/12 11:49:10;;;;;;;40.05;21.60;;;;;;;16.95;100.00;101317.63;5032695;28;20033;-75
2023/10/12 11:51:50;;;;;;;43.72;23.33;;;;;;;17.06;100.00;101315.75;5029429;28;20040;-75
2023/10/12 11:54:20;;;;;;;55.28;25.35;;;;;;;17.07;100.00;101319.31;5029957;28;20121;-76
2023/10/12 11:56:49;;;;;;;41.60;23.80;;;;;;;17.12;100.00;101316.22;5021675;28;20043;-76
2023/10/12 11:59:27;;;;;;;47.03;24.02;;;;;;;16.95;100.00;101309.53;5022296;28;20029;-75
2023/10/12 12:01:55;;;;;;;57.75;30.20;;;;;;;16.70;100.00;101316.06;5027217;28;20034;-77
2023/10/12 12:04:32;;;;;;;56.00;29.58;;;;;;;16.88;100.00;101319.13;5035683;28;20052;-77
2023/10/12 12:06:59;;;;;;;60.10;32.15;;;;;;;16.90;100.00;101307.22;5033146;28;20061;-76
2023/10/12 12:09:27;;;;;;;85.13;37.03;;;;;;;16.92;100.00;101307.09;5027285;28;20092;-76
2023/10/12 12:11:54;;;;;;;65.57;33.05;;;;;;;16.90;100.00;101309.06;5027277;28;20048;-76
2023/10/12 12:14:20;;;;;;;66.03;33.80;;;;;;;16.89;100.00;101304.66;5025911;28;20033;-74
2023/10/12 12:16:46;;;;;;;82.28;37.50;;;;;;;16.80;100.00;101312.50;5018174;28;20506;-76
2023/10/12 12:19:19;;;;;;;71.90;35.55;;;;;;;16.71;100.00;101325.84;5039811;28;20916;-75
2023/10/12 12:21:45;;;;;;;74.63;35.17;;;;;;;16.77;100.00;101320.00;5024066;28;20116;-76
2023/10/12 12:26:46;;;;;;;74.68;33.10;;;;;;;16.76;100.00;101334.44;5028206;28;20044;-77
2023/10/12 12:29:12;;;;;;;87.88;37.65;;;;;;;16.79;100.00;101336.91;5028304;28;20044;-75
2023/10/12 12:31:40;;;;;;;86.72;37.78;;;;;;;16.80;100.00;101333.22;5039755;28;20096;-76
2023/10/12 12:34:06;;;;;;;106.80;42.13;;;;;;;16.71;100.00;101342.00;5025759;28;25405;-74
2023/10/12 12:36:32;;;;;;;75.22;36.30;;;;;;;16.73;100.00;101346.34;5022324;28;20034;-75
2023/10/12 12:39:00;;;;;;;79.40;37.45;;;;;;;16.71;100.00;101345.59;5039973;28;20049;-77
2023/10/12 12:41:26;;;;;;;93.85;41.53;;;;;;;16.55;100.00;101347.78;5025956;28;20120;-75
2023/10/12 12:43:53;;;;;;;91.75;39.97;;;;;;;16.69;100.00;101352.91;5030481;28;20179;-77
2023/10/12 12:46:19;;;;;;;110.00;42.85;;;;;;;16.65;100.00;101364.91;5024064;28;20037;-77
2023/10/12 12:48:52;;;;;;;92.93;39.40;;;;;;;16.66;100.00;101361.22;5043939;28;20034;-77
2023/10/12 12:51:19;;;;;;;101.80;40.47;;;;;;;16.57;100.00;101367.38;5029047;28;20037;-75
2023/10/12 12:53:48;;;;;;;111.65;44.35;;;;;;;16.63;100.00;101364.19;5025131;28;20041;-75
2023/10/12 12:56:17;;;;;;;124.85;45.90;;;;;;;16.51;100.00;101370.53;5026550;28;20095;-75
2023/10/12 12:58:46;;;;;;;98.68;37.95;;;;;;;16.68;100.00;101370.06;5018736;28;20133;-75
2023/10/12 13:01:13;;;;;;;105.05;43.13;;;;;;;16.64;100.00;101367.72;5037260;28;20107;-75
2023/10/12 13:03:38;;;;;;;111.95;46.88;;;;;;;16.39;100.00;101358.91;5027585;28;20128;-76
2023/10/12 13:06:07;;;;;;;122.07;47.15;;;;;;;16.48;100.00;101354.66;5030489;28;20049;-78
2023/10/12 13:08:34;;;;;;;95.45;42.25;;;;;;;16.44;100.00;101355.88;5028915;28;20034;-75
2023/10/12 13:10:59;;;;;;;114.20;46.35;;;;;;;16.33;100.00;101354.03;5036090;28;20042;-75
2023/10/12 13:13:25;;;;;;;92.57;41.88;;;;;;;16.30;100.00;101351.56;5030965;28;20037;-75
2023/10/12 13:15:50;;;;;;;93.95;44.35;;;;;;;16.27;100.00;101359.91;5026529;28;20052;-76
2023/10/12 13:18:16;;;;;;;98.13;45.53;;;;;;;16.26;100.00;101360.84;5024439;28;20046;-77
2023/10/12 13:20:46;;;;;;;91.07;42.28;;;;;;;16.36;100.00;101361.00;5026648;28;20065;-77
2023/10/12 13:23:18;;;;;;;103.40;43.35;;;;;;;16.53;100.00;101369.44;5025327;28;20118;-75
2023/10/12 13:25:44;;;;;;;114.00;46.92;;;;;;;16.45;100.00;101363.81;5025858;28;20034;-76
2023/10/12 13:28:10;;;;;;;116.97;45.72;;;;;;;16.43;100.00;101359.53;5024874;28;20041;-77
2023/10/12 13:30:37;;;;;;;106.07;45.03;;;;;;;16.47;100.00;101366.41;5032769;28;20084;-76
2023/10/12 13:33:09;;;;;;;119.90;48.17;;;;;;;16.46;100.00;101364.66;5032461;28;20029;-75
2023/10/12 13:38:10;;;;;;;80.35;40.40;;;;;;;16.50;100.00;101355.38;5023751;28;20030;-75